sensor_id;sensor_type;location;lat;lon;timestamp;P1;durP1;ratioP1;P2;durP2;ratioP2
36989;SDS011;22898;52.102;5.776;2023-07-30T00:01:39;1.08;;;0.75;;
36989;SDS011;22898;52.102;5.776;2023-07-30T00:04:04;2.22;;;1.10;;
36989;SDS011;22898;52.102;5.776;2023-07-30T00:06:30;1.15;;;0.98;;
36989;SDS011;22898;52.102;5.776;2023-07-30T00:08:56;3.30;;;1.20;;
36989;SDS011;22898;52.102;5.776;2023-07-30T00:11:21;4.25;;;1.30;;
36989;SDS011;22898;52.102;5.776;2023-07-30T00:13:47;1.00;;;0.90;;
36989;SDS011;22898;52.102;5.776;2023-07-30T00:16:12;3.47;;;1.42;;
36989;SDS011;22898;52.102;5.776;2023-07-30T00:18:38;2.33;;;1.10;;
36989;SDS011;22898;52.102;5.776;2023-07-30T00:21:04;1.95;;;1.30;;
36989;SDS011;22898;52.102;5.776;2023-07-30T00:23:29;1.40;;;1.02;;
36989;SDS011;22898;52.102;5.776;2023-07-30T00:25:55;1.83;;;1.20;;
36989;SDS011;22898;52.102;5.776;2023-07-30T00:28:20;2.67;;;1.27;;
36989;SDS011;22898;52.102;5.776;2023-07-30T00:30:46;0.80;;;0.68;;
36989;SDS011;22898;52.102;5.776;2023-07-30T00:33:12;1.50;;;1.35;;
36989;SDS011;22898;52.102;5.776;2023-07-30T00:35:37;1.85;;;1.00;;
36989;SDS011;22898;52.102;5.776;2023-07-30T00:38:03;3.03;;;1.35;;
36989;SDS011;22898;52.102;5.776;2023-07-30T00:40:29;1.02;;;0.93;;
36989;SDS011;22898;52.102;5.776;2023-07-30T00:42:54;2.85;;;1.10;;
36989;SDS011;22898;52.102;5.776;2023-07-30T00:45:20;1.98;;;0.70;;
36989;SDS011;22898;52.102;5.776;2023-07-30T00:47:46;5.47;;;1.30;;
36989;SDS011;22898;52.102;5.776;2023-07-30T00:50:12;1.15;;;0.90;;
36989;SDS011;22898;52.102;5.776;2023-07-30T00:52:39;0.82;;;0.70;;
36989;SDS011;22898;52.102;5.776;2023-07-30T00:55:05;1.27;;;1.02;;
36989;SDS011;22898;52.102;5.776;2023-07-30T00:57:32;1.30;;;0.93;;
36989;SDS011;22898;52.102;5.776;2023-07-30T00:59:59;4.30;;;1.30;;
36989;SDS011;22898;52.102;5.776;2023-07-30T01:02:27;1.42;;;1.08;;
36989;SDS011;22898;52.102;5.776;2023-07-30T01:04:53;4.65;;;1.48;;
36989;SDS011;22898;52.102;5.776;2023-07-30T01:07:18;1.38;;;0.82;;
36989;SDS011;22898;52.102;5.776;2023-07-30T01:09:44;1.80;;;0.98;;
36989;SDS011;22898;52.102;5.776;2023-07-30T01:12:10;0.90;;;0.90;;
36989;SDS011;22898;52.102;5.776;2023-07-30T01:14:36;2.13;;;0.80;;
36989;SDS011;22898;52.102;5.776;2023-07-30T01:17:03;2.28;;;1.70;;
36989;SDS011;22898;52.102;5.776;2023-07-30T01:19:30;2.67;;;1.13;;
36989;SDS011;22898;52.102;5.776;2023-07-30T01:21:55;2.05;;;1.17;;
36989;SDS011;22898;52.102;5.776;2023-07-30T01:24:21;1.55;;;1.08;;
36989;SDS011;22898;52.102;5.776;2023-07-30T01:26:49;1.00;;;0.80;;
36989;SDS011;22898;52.102;5.776;2023-07-30T01:29:33;4.30;;;1.20;;
36989;SDS011;22898;52.102;5.776;2023-07-30T01:32:07;0.98;;;0.90;;
36989;SDS011;22898;52.102;5.776;2023-07-30T01:34:35;0.90;;;0.80;;
36989;SDS011;22898;52.102;5.776;2023-07-30T01:37:05;0.95;;;0.70;;
36989;SDS011;22898;52.102;5.776;2023-07-30T01:39:35;1.02;;;0.60;;
36989;SDS011;22898;52.102;5.776;2023-07-30T01:42:03;4.57;;;2.25;;
36989;SDS011;22898;52.102;5.776;2023-07-30T01:44:29;2.00;;;1.40;;
36989;SDS011;22898;52.102;5.776;2023-07-30T01:46:54;0.50;;;0.50;;
36989;SDS011;22898;52.102;5.776;2023-07-30T01:49:20;2.97;;;0.90;;
36989;SDS011;22898;52.102;5.776;2023-07-30T01:51:45;1.20;;;1.10;;
36989;SDS011;22898;52.102;5.776;2023-07-30T01:54:11;0.70;;;0.70;;
36989;SDS011;22898;52.102;5.776;2023-07-30T01:56:37;6.45;;;1.67;;
36989;SDS011;22898;52.102;5.776;2023-07-30T01:59:03;4.43;;;1.38;;
36989;SDS011;22898;52.102;5.776;2023-07-30T02:01:28;4.13;;;0.95;;
36989;SDS011;22898;52.102;5.776;2023-07-30T02:03:54;2.97;;;1.42;;
36989;SDS011;22898;52.102;5.776;2023-07-30T02:06:20;0.90;;;0.73;;
36989;SDS011;22898;52.102;5.776;2023-07-30T02:08:45;5.57;;;1.52;;
36989;SDS011;22898;52.102;5.776;2023-07-30T02:11:11;1.92;;;0.90;;
36989;SDS011;22898;52.102;5.776;2023-07-30T02:13:37;1.60;;;0.80;;
36989;SDS011;22898;52.102;5.776;2023-07-30T02:16:03;2.05;;;1.13;;
36989;SDS011;22898;52.102;5.776;2023-07-30T02:18:29;1.63;;;1.00;;
36989;SDS011;22898;52.102;5.776;2023-07-30T02:20:54;2.55;;;1.58;;
36989;SDS011;22898;52.102;5.776;2023-07-30T02:23:20;3.55;;;0.75;;
36989;SDS011;22898;52.102;5.776;2023-07-30T02:25:45;1.65;;;0.80;;
36989;SDS011;22898;52.102;5.776;2023-07-30T02:28:11;5.88;;;2.10;;
36989;SDS011;22898;52.102;5.776;2023-07-30T02:30:36;1.50;;;1.10;;
36989;SDS011;22898;52.102;5.776;2023-07-30T02:33:05;1.95;;;1.23;;
36989;SDS011;22898;52.102;5.776;2023-07-30T02:35:31;4.65;;;1.15;;
36989;SDS011;22898;52.102;5.776;2023-07-30T02:37:56;2.67;;;1.30;;
36989;SDS011;22898;52.102;5.776;2023-07-30T02:40:22;2.95;;;1.27;;
36989;SDS011;22898;52.102;5.776;2023-07-30T02:42:47;1.13;;;1.02;;
36989;SDS011;22898;52.102;5.776;2023-07-30T02:45:13;2.92;;;1.50;;
36989;SDS011;22898;52.102;5.776;2023-07-30T02:47:38;0.77;;;0.73;;
36989;SDS011;22898;52.102;5.776;2023-07-30T02:50:04;3.15;;;1.40;;
36989;SDS011;22898;52.102;5.776;2023-07-30T02:52:31;0.93;;;0.93;;
36989;SDS011;22898;52.102;5.776;2023-07-30T02:54:56;1.33;;;1.23;;
36989;SDS011;22898;52.102;5.776;2023-07-30T02:57:22;2.95;;;0.93;;
36989;SDS011;22898;52.102;5.776;2023-07-30T02:59:47;5.50;;;1.73;;
36989;SDS011;22898;52.102;5.776;2023-07-30T03:02:13;3.88;;;1.42;;
36989;SDS011;22898;52.102;5.776;2023-07-30T03:04:38;1.80;;;0.98;;
36989;SDS011;22898;52.102;5.776;2023-07-30T03:07:04;1.35;;;0.88;;
36989;SDS011;22898;52.102;5.776;2023-07-30T03:09:30;4.20;;;1.98;;
36989;SDS011;22898;52.102;5.776;2023-07-30T03:11:55;5.47;;;1.17;;
36989;SDS011;22898;52.102;5.776;2023-07-30T03:14:21;2.95;;;1.40;;
36989;SDS011;22898;52.102;5.776;2023-07-30T03:16:47;0.98;;;0.88;;
36989;SDS011;22898;52.102;5.776;2023-07-30T03:19:13;3.17;;;1.80;;
36989;SDS011;22898;52.102;5.776;2023-07-30T03:21:39;4.60;;;1.00;;
36989;SDS011;22898;52.102;5.776;2023-07-30T03:24:05;3.03;;;1.23;;
36989;SDS011;22898;52.102;5.776;2023-07-30T03:26:30;2.92;;;1.83;;
36989;SDS011;22898;52.102;5.776;2023-07-30T03:28:56;3.72;;;0.90;;
36989;SDS011;22898;52.102;5.776;2023-07-30T03:31:21;3.08;;;1.33;;
36989;SDS011;22898;52.102;5.776;2023-07-30T03:33:47;2.70;;;1.75;;
36989;SDS011;22898;52.102;5.776;2023-07-30T03:36:13;4.53;;;1.15;;
36989;SDS011;22898;52.102;5.776;2023-07-30T03:38:39;3.00;;;1.42;;
36989;SDS011;22898;52.102;5.776;2023-07-30T03:41:05;5.03;;;1.70;;
36989;SDS011;22898;52.102;5.776;2023-07-30T03:43:31;3.83;;;1.27;;
36989;SDS011;22898;52.102;5.776;2023-07-30T03:46:00;1.60;;;1.15;;
36989;SDS011;22898;52.102;5.776;2023-07-30T03:48:26;3.22;;;1.52;;
36989;SDS011;22898;52.102;5.776;2023-07-30T03:50:52;4.45;;;1.98;;
36989;SDS011;22898;52.102;5.776;2023-07-30T03:53:19;4.03;;;2.03;;
36989;SDS011;22898;52.102;5.776;2023-07-30T03:55:45;1.77;;;0.98;;
36989;SDS011;22898;52.102;5.776;2023-07-30T03:58:10;3.22;;;1.08;;
36989;SDS011;22898;52.102;5.776;2023-07-30T04:00:36;1.45;;;1.27;;
36989;SDS011;22898;52.102;5.776;2023-07-30T04:03:03;2.08;;;1.27;;
36989;SDS011;22898;52.102;5.776;2023-07-30T04:05:29;3.45;;;1.55;;
36989;SDS011;22898;52.102;5.776;2023-07-30T04:07:55;11.05;;;1.98;;
36989;SDS011;22898;52.102;5.776;2023-07-30T04:10:21;5.10;;;2.45;;
36989;SDS011;22898;52.102;5.776;2023-07-30T04:12:46;8.05;;;1.85;;
36989;SDS011;22898;52.102;5.776;2023-07-30T04:15:12;4.38;;;2.58;;
36989;SDS011;22898;52.102;5.776;2023-07-30T04:17:41;4.00;;;1.75;;
36989;SDS011;22898;52.102;5.776;2023-07-30T04:20:07;2.60;;;1.50;;
36989;SDS011;22898;52.102;5.776;2023-07-30T04:22:34;4.80;;;2.10;;
36989;SDS011;22898;52.102;5.776;2023-07-30T04:25:00;4.05;;;1.88;;
36989;SDS011;22898;52.102;5.776;2023-07-30T04:27:26;6.25;;;1.80;;
36989;SDS011;22898;52.102;5.776;2023-07-30T04:29:51;2.50;;;1.77;;
36989;SDS011;22898;52.102;5.776;2023-07-30T04:32:17;7.15;;;1.85;;
36989;SDS011;22898;52.102;5.776;2023-07-30T04:34:42;2.30;;;1.70;;
36989;SDS011;22898;52.102;5.776;2023-07-30T04:37:08;3.75;;;1.65;;
36989;SDS011;22898;52.102;5.776;2023-07-30T04:39:34;3.17;;;1.67;;
36989;SDS011;22898;52.102;5.776;2023-07-30T04:42:00;4.43;;;1.55;;
36989;SDS011;22898;52.102;5.776;2023-07-30T04:44:26;6.13;;;2.38;;
36989;SDS011;22898;52.102;5.776;2023-07-30T04:46:52;3.88;;;2.08;;
36989;SDS011;22898;52.102;5.776;2023-07-30T04:49:18;2.83;;;1.85;;
36989;SDS011;22898;52.102;5.776;2023-07-30T04:51:43;1.75;;;1.55;;
36989;SDS011;22898;52.102;5.776;2023-07-30T04:54:09;6.55;;;1.73;;
36989;SDS011;22898;52.102;5.776;2023-07-30T04:56:34;4.43;;;2.78;;
36989;SDS011;22898;52.102;5.776;2023-07-30T04:59:00;14.95;;;2.42;;
36989;SDS011;22898;52.102;5.776;2023-07-30T05:01:26;6.13;;;3.00;;
36989;SDS011;22898;52.102;5.776;2023-07-30T05:03:52;6.30;;;2.88;;
36989;SDS011;22898;52.102;5.776;2023-07-30T05:06:17;7.80;;;2.45;;
36989;SDS011;22898;52.102;5.776;2023-07-30T05:08:43;7.43;;;1.80;;
36989;SDS011;22898;52.102;5.776;2023-07-30T05:11:09;8.95;;;2.13;;
36989;SDS011;22898;52.102;5.776;2023-07-30T05:13:34;8.80;;;3.33;;
36989;SDS011;22898;52.102;5.776;2023-07-30T05:16:00;6.85;;;2.42;;
36989;SDS011;22898;52.102;5.776;2023-07-30T05:18:26;6.47;;;2.00;;
36989;SDS011;22898;52.102;5.776;2023-07-30T05:20:52;4.15;;;1.88;;
36989;SDS011;22898;52.102;5.776;2023-07-30T05:23:17;3.38;;;2.75;;
36989;SDS011;22898;52.102;5.776;2023-07-30T05:25:43;3.28;;;2.40;;
36989;SDS011;22898;52.102;5.776;2023-07-30T05:28:09;3.30;;;1.85;;
36989;SDS011;22898;52.102;5.776;2023-07-30T05:30:34;7.32;;;1.67;;
36989;SDS011;22898;52.102;5.776;2023-07-30T05:33:00;4.22;;;1.85;;
36989;SDS011;22898;52.102;5.776;2023-07-30T05:35:25;7.25;;;2.90;;
36989;SDS011;22898;52.102;5.776;2023-07-30T05:37:51;10.63;;;2.53;;
36989;SDS011;22898;52.102;5.776;2023-07-30T05:40:16;4.55;;;1.63;;
36989;SDS011;22898;52.102;5.776;2023-07-30T05:42:42;4.18;;;2.22;;
36989;SDS011;22898;52.102;5.776;2023-07-30T05:45:07;3.03;;;1.20;;
36989;SDS011;22898;52.102;5.776;2023-07-30T05:47:33;17.15;;;3.40;;
36989;SDS011;22898;52.102;5.776;2023-07-30T05:49:59;6.70;;;2.28;;
36989;SDS011;22898;52.102;5.776;2023-07-30T05:52:25;4.45;;;2.20;;
36989;SDS011;22898;52.102;5.776;2023-07-30T05:54:50;4.82;;;2.75;;
36989;SDS011;22898;52.102;5.776;2023-07-30T05:57:16;16.55;;;3.35;;
36989;SDS011;22898;52.102;5.776;2023-07-30T05:59:41;3.03;;;1.80;;
36989;SDS011;22898;52.102;5.776;2023-07-30T06:02:07;4.25;;;2.08;;
36989;SDS011;22898;52.102;5.776;2023-07-30T06:04:32;2.47;;;2.05;;
36989;SDS011;22898;52.102;5.776;2023-07-30T06:06:59;4.78;;;1.65;;
36989;SDS011;22898;52.102;5.776;2023-07-30T06:09:25;4.65;;;2.17;;
36989;SDS011;22898;52.102;5.776;2023-07-30T06:11:51;7.43;;;1.88;;
36989;SDS011;22898;52.102;5.776;2023-07-30T06:14:17;5.38;;;2.83;;
36989;SDS011;22898;52.102;5.776;2023-07-30T06:16:42;5.95;;;4.45;;
36989;SDS011;22898;52.102;5.776;2023-07-30T06:19:08;2.38;;;1.85;;
36989;SDS011;22898;52.102;5.776;2023-07-30T06:21:34;2.75;;;2.35;;
36989;SDS011;22898;52.102;5.776;2023-07-30T06:24:00;2.33;;;1.80;;
36989;SDS011;22898;52.102;5.776;2023-07-30T06:26:25;6.25;;;3.15;;
36989;SDS011;22898;52.102;5.776;2023-07-30T06:28:51;10.07;;;3.72;;
36989;SDS011;22898;52.102;5.776;2023-07-30T06:31:16;7.10;;;2.42;;
36989;SDS011;22898;52.102;5.776;2023-07-30T06:33:42;6.03;;;3.22;;
36989;SDS011;22898;52.102;5.776;2023-07-30T06:36:07;4.47;;;2.80;;
36989;SDS011;22898;52.102;5.776;2023-07-30T06:38:33;7.47;;;2.78;;
36989;SDS011;22898;52.102;5.776;2023-07-30T06:40:59;3.40;;;2.30;;
36989;SDS011;22898;52.102;5.776;2023-07-30T06:43:24;5.88;;;2.42;;
36989;SDS011;22898;52.102;5.776;2023-07-30T06:45:50;3.38;;;2.30;;
36989;SDS011;22898;52.102;5.776;2023-07-30T06:48:15;4.93;;;1.73;;
36989;SDS011;22898;52.102;5.776;2023-07-30T06:50:41;5.20;;;2.50;;
36989;SDS011;22898;52.102;5.776;2023-07-30T06:53:07;12.02;;;3.97;;
36989;SDS011;22898;52.102;5.776;2023-07-30T06:55:32;8.07;;;2.33;;
36989;SDS011;22898;52.102;5.776;2023-07-30T06:57:58;7.03;;;2.55;;
36989;SDS011;22898;52.102;5.776;2023-07-30T07:00:24;6.15;;;2.42;;
36989;SDS011;22898;52.102;5.776;2023-07-30T07:02:50;7.07;;;3.00;;
36989;SDS011;22898;52.102;5.776;2023-07-30T07:05:15;5.35;;;2.22;;
36989;SDS011;22898;52.102;5.776;2023-07-30T07:07:41;6.57;;;2.90;;
36989;SDS011;22898;52.102;5.776;2023-07-30T07:10:07;5.45;;;2.08;;
36989;SDS011;22898;52.102;5.776;2023-07-30T07:12:33;9.35;;;3.85;;
36989;SDS011;22898;52.102;5.776;2023-07-30T07:14:59;6.32;;;2.53;;
36989;SDS011;22898;52.102;5.776;2023-07-30T07:17:26;2.92;;;2.15;;
36989;SDS011;22898;52.102;5.776;2023-07-30T07:19:52;4.80;;;1.80;;
36989;SDS011;22898;52.102;5.776;2023-07-30T07:22:18;8.13;;;3.85;;
36989;SDS011;22898;52.102;5.776;2023-07-30T07:24:44;4.13;;;2.72;;
36989;SDS011;22898;52.102;5.776;2023-07-30T07:27:09;9.18;;;2.58;;
36989;SDS011;22898;52.102;5.776;2023-07-30T07:29:35;7.55;;;2.55;;
36989;SDS011;22898;52.102;5.776;2023-07-30T07:32:01;8.50;;;2.15;;
36989;SDS011;22898;52.102;5.776;2023-07-30T07:34:26;5.10;;;1.77;;
36989;SDS011;22898;52.102;5.776;2023-07-30T07:36:52;8.95;;;2.33;;
36989;SDS011;22898;52.102;5.776;2023-07-30T07:39:19;3.88;;;2.92;;
36989;SDS011;22898;52.102;5.776;2023-07-30T07:41:44;3.47;;;2.50;;
36989;SDS011;22898;52.102;5.776;2023-07-30T07:44:10;3.20;;;2.38;;
36989;SDS011;22898;52.102;5.776;2023-07-30T07:46:36;6.40;;;2.83;;
36989;SDS011;22898;52.102;5.776;2023-07-30T07:49:01;8.13;;;3.63;;
36989;SDS011;22898;52.102;5.776;2023-07-30T07:51:27;3.65;;;2.15;;
36989;SDS011;22898;52.102;5.776;2023-07-30T07:53:52;5.22;;;2.03;;
36989;SDS011;22898;52.102;5.776;2023-07-30T07:56:18;2.63;;;2.25;;
36989;SDS011;22898;52.102;5.776;2023-07-30T07:58:43;3.00;;;1.63;;
36989;SDS011;22898;52.102;5.776;2023-07-30T08:01:09;2.75;;;1.90;;
36989;SDS011;22898;52.102;5.776;2023-07-30T08:03:35;3.47;;;2.47;;
36989;SDS011;22898;52.102;5.776;2023-07-30T08:06:00;7.88;;;2.42;;
36989;SDS011;22898;52.102;5.776;2023-07-30T08:08:26;3.60;;;1.80;;
36989;SDS011;22898;52.102;5.776;2023-07-30T08:10:52;4.35;;;2.22;;
36989;SDS011;22898;52.102;5.776;2023-07-30T08:13:18;2.67;;;1.63;;
36989;SDS011;22898;52.102;5.776;2023-07-30T08:15:43;1.50;;;1.17;;
36989;SDS011;22898;52.102;5.776;2023-07-30T08:18:09;5.07;;;1.85;;
36989;SDS011;22898;52.102;5.776;2023-07-30T08:20:35;3.65;;;2.00;;
36989;SDS011;22898;52.102;5.776;2023-07-30T08:23:01;2.45;;;1.38;;
36989;SDS011;22898;52.102;5.776;2023-07-30T08:25:27;2.58;;;1.70;;
36989;SDS011;22898;52.102;5.776;2023-07-30T08:27:52;4.75;;;1.60;;
36989;SDS011;22898;52.102;5.776;2023-07-30T08:30:18;3.25;;;1.35;;
36989;SDS011;22898;52.102;5.776;2023-07-30T08:32:43;3.55;;;1.98;;
36989;SDS011;22898;52.102;5.776;2023-07-30T08:35:09;3.83;;;1.63;;
36989;SDS011;22898;52.102;5.776;2023-07-30T08:37:35;4.57;;;1.30;;
36989;SDS011;22898;52.102;5.776;2023-07-30T08:40:01;4.00;;;1.80;;
36989;SDS011;22898;52.102;5.776;2023-07-30T08:42:27;2.20;;;1.38;;
36989;SDS011;22898;52.102;5.776;2023-07-30T08:44:53;3.17;;;1.83;;
36989;SDS011;22898;52.102;5.776;2023-07-30T08:47:19;2.42;;;1.65;;
36989;SDS011;22898;52.102;5.776;2023-07-30T08:49:45;2.10;;;1.83;;
36989;SDS011;22898;52.102;5.776;2023-07-30T08:52:10;3.20;;;2.05;;
36989;SDS011;22898;52.102;5.776;2023-07-30T08:54:37;3.20;;;1.58;;
36989;SDS011;22898;52.102;5.776;2023-07-30T08:57:04;10.25;;;1.75;;
36989;SDS011;22898;52.102;5.776;2023-07-30T08:59:31;1.05;;;0.90;;
36989;SDS011;22898;52.102;5.776;2023-07-30T09:02:00;2.60;;;1.90;;
36989;SDS011;22898;52.102;5.776;2023-07-30T09:04:26;4.85;;;1.95;;
36989;SDS011;22898;52.102;5.776;2023-07-30T09:06:54;4.07;;;1.77;;
36989;SDS011;22898;52.102;5.776;2023-07-30T09:09:21;4.90;;;1.67;;
36989;SDS011;22898;52.102;5.776;2023-07-30T09:11:52;2.20;;;1.48;;
36989;SDS011;22898;52.102;5.776;2023-07-30T09:14:21;1.30;;;1.20;;
36989;SDS011;22898;52.102;5.776;2023-07-30T09:16:47;3.95;;;1.50;;
36989;SDS011;22898;52.102;5.776;2023-07-30T09:19:18;2.58;;;1.55;;
36989;SDS011;22898;52.102;5.776;2023-07-30T09:21:44;3.13;;;1.45;;
36989;SDS011;22898;52.102;5.776;2023-07-30T09:24:10;3.35;;;1.33;;
36989;SDS011;22898;52.102;5.776;2023-07-30T09:26:39;2.35;;;1.67;;
36989;SDS011;22898;52.102;5.776;2023-07-30T09:29:08;8.90;;;2.03;;
36989;SDS011;22898;52.102;5.776;2023-07-30T09:31:55;3.30;;;1.60;;
36989;SDS011;22898;52.102;5.776;2023-07-30T09:34:21;2.35;;;1.85;;
36989;SDS011;22898;52.102;5.776;2023-07-30T09:36:54;1.80;;;1.02;;
36989;SDS011;22898;52.102;5.776;2023-07-30T09:39:21;1.20;;;1.10;;
36989;SDS011;22898;52.102;5.776;2023-07-30T09:41:47;6.18;;;1.23;;
36989;SDS011;22898;52.102;5.776;2023-07-30T09:44:15;3.30;;;1.63;;
36989;SDS011;22898;52.102;5.776;2023-07-30T09:46:42;1.90;;;1.52;;
36989;SDS011;22898;52.102;5.776;2023-07-30T09:49:09;2.58;;;1.40;;
36989;SDS011;22898;52.102;5.776;2023-07-30T09:51:36;0.70;;;0.70;;
36989;SDS011;22898;52.102;5.776;2023-07-30T09:54:05;3.00;;;1.05;;
36989;SDS011;22898;52.102;5.776;2023-07-30T09:56:36;1.63;;;1.42;;
36989;SDS011;22898;52.102;5.776;2023-07-30T09:59:04;2.15;;;1.60;;
36989;SDS011;22898;52.102;5.776;2023-07-30T10:01:30;0.95;;;0.55;;
36989;SDS011;22898;52.102;5.776;2023-07-30T10:04:00;7.38;;;1.13;;
36989;SDS011;22898;52.102;5.776;2023-07-30T10:06:33;0.53;;;0.53;;
36989;SDS011;22898;52.102;5.776;2023-07-30T10:09:06;3.73;;;0.63;;
36989;SDS011;22898;52.102;5.776;2023-07-30T10:11:34;0.65;;;0.65;;
36989;SDS011;22898;52.102;5.776;2023-07-30T10:14:01;1.30;;;1.20;;
36989;SDS011;22898;52.102;5.776;2023-07-30T10:16:30;0.60;;;0.60;;
36989;SDS011;22898;52.102;5.776;2023-07-30T10:18:56;2.42;;;1.17;;
36989;SDS011;22898;52.102;5.776;2023-07-30T10:21:24;1.00;;;0.90;;
36989;SDS011;22898;52.102;5.776;2023-07-30T10:23:58;3.33;;;0.98;;
36989;SDS011;22898;52.102;5.776;2023-07-30T10:26:32;1.85;;;0.88;;
36989;SDS011;22898;52.102;5.776;2023-07-30T10:31:40;2.30;;;1.10;;
36989;SDS011;22898;52.102;5.776;2023-07-30T10:34:07;2.38;;;1.23;;
36989;SDS011;22898;52.102;5.776;2023-07-30T10:36:41;3.28;;;1.20;;
36989;SDS011;22898;52.102;5.776;2023-07-30T10:39:18;5.35;;;1.63;;
36989;SDS011;22898;52.102;5.776;2023-07-30T10:41:49;0.95;;;0.70;;
36989;SDS011;22898;52.102;5.776;2023-07-30T10:44:26;1.00;;;0.85;;
36989;SDS011;22898;52.102;5.776;2023-07-30T10:46:55;5.15;;;1.05;;
36989;SDS011;22898;52.102;5.776;2023-07-30T10:49:22;2.53;;;0.88;;
36989;SDS011;22898;52.102;5.776;2023-07-30T10:51:47;1.25;;;0.93;;
36989;SDS011;22898;52.102;5.776;2023-07-30T10:54:13;3.35;;;1.25;;
36989;SDS011;22898;52.102;5.776;2023-07-30T10:56:44;6.82;;;2.05;;
36989;SDS011;22898;52.102;5.776;2023-07-30T10:59:10;1.88;;;0.90;;
36989;SDS011;22898;52.102;5.776;2023-07-30T11:01:38;3.03;;;0.88;;
36989;SDS011;22898;52.102;5.776;2023-07-30T11:04:14;0.98;;;0.88;;
36989;SDS011;22898;52.102;5.776;2023-07-30T11:06:45;1.92;;;0.70;;
36989;SDS011;22898;52.102;5.776;2023-07-30T11:11:45;4.88;;;0.82;;
36989;SDS011;22898;52.102;5.776;2023-07-30T11:14:24;0.95;;;0.85;;
36989;SDS011;22898;52.102;5.776;2023-07-30T11:16:54;1.23;;;0.75;;
36989;SDS011;22898;52.102;5.776;2023-07-30T11:19:23;1.85;;;0.90;;
36989;SDS011;22898;52.102;5.776;2023-07-30T11:21:50;3.30;;;1.13;;
36989;SDS011;22898;52.102;5.776;2023-07-30T11:24:16;1.88;;;0.73;;
36989;SDS011;22898;52.102;5.776;2023-07-30T11:26:42;0.50;;;0.50;;
36989;SDS011;22898;52.102;5.776;2023-07-30T11:29:14;3.92;;;1.27;;
36989;SDS011;22898;52.102;5.776;2023-07-30T11:31:43;5.45;;;1.20;;
36989;SDS011;22898;52.102;5.776;2023-07-30T11:34:10;1.75;;;0.55;;
36989;SDS011;22898;52.102;5.776;2023-07-30T11:36:36;1.70;;;1.05;;
36989;SDS011;22898;52.102;5.776;2023-07-30T11:39:03;8.88;;;1.25;;
36989;SDS011;22898;52.102;5.776;2023-07-30T11:41:29;0.68;;;0.68;;
36989;SDS011;22898;52.102;5.776;2023-07-30T11:43:55;2.22;;;1.15;;
36989;SDS011;22898;52.102;5.776;2023-07-30T11:46:21;2.83;;;0.50;;
36989;SDS011;22898;52.102;5.776;2023-07-30T11:48:48;1.15;;;0.73;;
36989;SDS011;22898;52.102;5.776;2023-07-30T11:51:22;1.48;;;0.60;;
36989;SDS011;22898;52.102;5.776;2023-07-30T11:53:56;1.65;;;0.60;;
36989;SDS011;22898;52.102;5.776;2023-07-30T11:56:24;1.08;;;0.93;;
36989;SDS011;22898;52.102;5.776;2023-07-30T11:59:12;5.60;;;2.28;;
36989;SDS011;22898;52.102;5.776;2023-07-30T12:01:38;1.15;;;0.85;;
36989;SDS011;22898;52.102;5.776;2023-07-30T12:04:07;1.75;;;0.82;;
36989;SDS011;22898;52.102;5.776;2023-07-30T12:11:43;0.80;;;0.80;;
36989;SDS011;22898;52.102;5.776;2023-07-30T12:14:21;0.38;;;0.38;;
36989;SDS011;22898;52.102;5.776;2023-07-30T12:16:50;0.50;;;0.50;;
36989;SDS011;22898;52.102;5.776;2023-07-30T12:19:16;0.95;;;0.70;;
36989;SDS011;22898;52.102;5.776;2023-07-30T12:21:41;0.50;;;0.50;;
36989;SDS011;22898;52.102;5.776;2023-07-30T12:24:07;1.05;;;0.80;;
36989;SDS011;22898;52.102;5.776;2023-07-30T12:26:33;0.95;;;0.50;;
36989;SDS011;22898;52.102;5.776;2023-07-30T12:28:58;0.40;;;0.40;;
36989;SDS011;22898;52.102;5.776;2023-07-30T12:31:24;0.47;;;0.47;;
36989;SDS011;22898;52.102;5.776;2023-07-30T12:33:50;0.40;;;0.40;;
36989;SDS011;22898;52.102;5.776;2023-07-30T12:36:15;0.47;;;0.47;;
36989;SDS011;22898;52.102;5.776;2023-07-30T12:38:41;0.98;;;0.40;;
36989;SDS011;22898;52.102;5.776;2023-07-30T12:41:06;0.57;;;0.47;;
36989;SDS011;22898;52.102;5.776;2023-07-30T12:43:32;0.50;;;0.50;;
36989;SDS011;22898;52.102;5.776;2023-07-30T12:45:57;0.73;;;0.55;;
36989;SDS011;22898;52.102;5.776;2023-07-30T12:48:23;0.55;;;0.55;;
36989;SDS011;22898;52.102;5.776;2023-07-30T12:50:48;1.27;;;0.90;;
36989;SDS011;22898;52.102;5.776;2023-07-30T12:53:14;1.30;;;0.77;;
36989;SDS011;22898;52.102;5.776;2023-07-30T12:55:40;1.02;;;0.88;;
36989;SDS011;22898;52.102;5.776;2023-07-30T12:58:05;1.42;;;0.73;;
36989;SDS011;22898;52.102;5.776;2023-07-30T13:00:31;0.50;;;0.50;;
36989;SDS011;22898;52.102;5.776;2023-07-30T13:02:58;1.17;;;1.00;;
36989;SDS011;22898;52.102;5.776;2023-07-30T13:05:24;0.95;;;0.50;;
36989;SDS011;22898;52.102;5.776;2023-07-30T13:07:50;0.50;;;0.50;;
36989;SDS011;22898;52.102;5.776;2023-07-30T13:10:16;0.65;;;0.45;;
36989;SDS011;22898;52.102;5.776;2023-07-30T13:12:41;1.50;;;0.50;;
36989;SDS011;22898;52.102;5.776;2023-07-30T13:15:07;1.90;;;1.05;;
36989;SDS011;22898;52.102;5.776;2023-07-30T13:17:33;7.85;;;1.60;;
36989;SDS011;22898;52.102;5.776;2023-07-30T13:19:59;0.50;;;0.50;;
36989;SDS011;22898;52.102;5.776;2023-07-30T13:22:25;1.13;;;0.70;;
36989;SDS011;22898;52.102;5.776;2023-07-30T13:24:51;0.30;;;0.30;;
36989;SDS011;22898;52.102;5.776;2023-07-30T13:27:17;1.15;;;0.60;;
36989;SDS011;22898;52.102;5.776;2023-07-30T13:29:43;0.63;;;0.50;;
36989;SDS011;22898;52.102;5.776;2023-07-30T13:32:09;2.95;;;0.77;;
36989;SDS011;22898;52.102;5.776;2023-07-30T13:34:34;0.40;;;0.40;;
36989;SDS011;22898;52.102;5.776;2023-07-30T13:37:00;1.70;;;0.70;;
36989;SDS011;22898;52.102;5.776;2023-07-30T13:39:26;2.45;;;0.60;;
36989;SDS011;22898;52.102;5.776;2023-07-30T13:41:52;4.38;;;0.82;;
36989;SDS011;22898;52.102;5.776;2023-07-30T13:44:17;0.85;;;0.75;;
36989;SDS011;22898;52.102;5.776;2023-07-30T13:46:43;0.90;;;0.65;;
36989;SDS011;22898;52.102;5.776;2023-07-30T13:49:09;3.83;;;0.70;;
36989;SDS011;22898;52.102;5.776;2023-07-30T13:51:34;1.83;;;0.65;;
36989;SDS011;22898;52.102;5.776;2023-07-30T13:54:00;2.30;;;1.15;;
36989;SDS011;22898;52.102;5.776;2023-07-30T13:56:26;1.10;;;0.63;;
36989;SDS011;22898;52.102;5.776;2023-07-30T13:58:53;0.95;;;0.55;;
36989;SDS011;22898;52.102;5.776;2023-07-30T14:01:19;0.88;;;0.40;;
36989;SDS011;22898;52.102;5.776;2023-07-30T14:03:44;0.43;;;0.43;;
36989;SDS011;22898;52.102;5.776;2023-07-30T14:06:10;0.75;;;0.60;;
36989;SDS011;22898;52.102;5.776;2023-07-30T14:08:36;0.52;;;0.35;;
36989;SDS011;22898;52.102;5.776;2023-07-30T14:11:03;0.40;;;0.40;;
36989;SDS011;22898;52.102;5.776;2023-07-30T14:13:29;0.88;;;0.70;;
36989;SDS011;22898;52.102;5.776;2023-07-30T14:15:55;1.52;;;1.33;;
36989;SDS011;22898;52.102;5.776;2023-07-30T14:18:21;0.40;;;0.40;;
36989;SDS011;22898;52.102;5.776;2023-07-30T14:20:47;0.77;;;0.40;;
36989;SDS011;22898;52.102;5.776;2023-07-30T14:23:12;0.50;;;0.50;;
36989;SDS011;22898;52.102;5.776;2023-07-30T14:25:38;0.40;;;0.40;;
36989;SDS011;22898;52.102;5.776;2023-07-30T14:28:05;1.08;;;0.40;;
36989;SDS011;22898;52.102;5.776;2023-07-30T14:30:30;2.13;;;0.98;;
36989;SDS011;22898;52.102;5.776;2023-07-30T14:32:56;5.88;;;1.00;;
36989;SDS011;22898;52.102;5.776;2023-07-30T14:35:22;1.02;;;0.90;;
36989;SDS011;22898;52.102;5.776;2023-07-30T14:37:47;0.80;;;0.77;;
36989;SDS011;22898;52.102;5.776;2023-07-30T14:40:14;0.80;;;0.80;;
36989;SDS011;22898;52.102;5.776;2023-07-30T14:42:40;10.00;;;1.50;;
36989;SDS011;22898;52.102;5.776;2023-07-30T14:45:05;1.63;;;1.17;;
36989;SDS011;22898;52.102;5.776;2023-07-30T14:47:32;3.88;;;1.83;;
36989;SDS011;22898;52.102;5.776;2023-07-30T14:49:58;4.53;;;1.90;;
36989;SDS011;22898;52.102;5.776;2023-07-30T14:52:23;5.15;;;2.35;;
36989;SDS011;22898;52.102;5.776;2023-07-30T14:54:49;5.15;;;2.38;;